sensor_id;sensor_type;location;lat;lon;timestamp;P1;durP1;ratioP1;P2;durP2;ratioP2
75435;SDS011;64014;53.432;14.534;2022-11-18T00:01:05;13.88;;;7.30;;
75435;SDS011;64014;53.432;14.534;2022-11-18T00:03:31;14.43;;;8.02;;
75435;SDS011;64014;53.432;14.534;2022-11-18T00:05:57;13.73;;;7.05;;
75435;SDS011;64014;53.432;14.534;2022-11-18T00:08:23;14.57;;;8.02;;
75435;SDS011;64014;53.432;14.534;2022-11-18T00:10:50;12.80;;;7.25;;
75435;SDS011;64014;53.432;14.534;2022-11-18T00:13:17;14.88;;;7.63;;
75435;SDS011;64014;53.432;14.534;2022-11-18T00:16:05;13.35;;;7.03;;
75435;SDS011;64014;53.432;14.534;2022-11-18T00:18:32;14.27;;;7.05;;
75435;SDS011;64014;53.432;14.534;2022-11-18T00:21:02;15.88;;;7.93;;
75435;SDS011;64014;53.432;14.534;2022-11-18T00:23:32;14.80;;;7.60;;
75435;SDS011;64014;53.432;14.534;2022-11-18T00:26:02;14.48;;;8.30;;
75435;SDS011;64014;53.432;14.534;2022-11-18T00:28:33;14.75;;;8.40;;
75435;SDS011;64014;53.432;14.534;2022-11-18T00:31:00;13.68;;;7.63;;
75435;SDS011;64014;53.432;14.534;2022-11-18T00:33:30;15.93;;;8.50;;
75435;SDS011;64014;53.432;14.534;2022-11-18T00:35:56;16.17;;;8.70;;
75435;SDS011;64014;53.432;14.534;2022-11-18T00:38:23;21.65;;;9.80;;
75435;SDS011;64014;53.432;14.534;2022-11-18T00:40:57;15.43;;;8.98;;
75435;SDS011;64014;53.432;14.534;2022-11-18T00:43:23;19.88;;;10.60;;
75435;SDS011;64014;53.432;14.534;2022-11-18T00:45:49;17.15;;;8.93;;
75435;SDS011;64014;53.432;14.534;2022-11-18T00:48:14;18.20;;;9.65;;
75435;SDS011;64014;53.432;14.534;2022-11-18T00:50:45;18.80;;;10.32;;
75435;SDS011;64014;53.432;14.534;2022-11-18T00:53:30;19.27;;;9.52;;
75435;SDS011;64014;53.432;14.534;2022-11-18T00:55:56;20.38;;;10.13;;
75435;SDS011;64014;53.432;14.534;2022-11-18T00:58:22;19.42;;;10.00;;
75435;SDS011;64014;53.432;14.534;2022-11-18T01:00:49;18.60;;;10.60;;
75435;SDS011;64014;53.432;14.534;2022-11-18T01:03:17;16.70;;;9.75;;
75435;SDS011;64014;53.432;14.534;2022-11-18T01:05:43;18.83;;;10.48;;
75435;SDS011;64014;53.432;14.534;2022-11-18T01:08:10;18.80;;;10.45;;
75435;SDS011;64014;53.432;14.534;2022-11-18T01:10:37;24.45;;;10.55;;
75435;SDS011;64014;53.432;14.534;2022-11-18T01:13:04;19.77;;;10.85;;
75435;SDS011;64014;53.432;14.534;2022-11-18T01:15:54;21.15;;;10.15;;
75435;SDS011;64014;53.432;14.534;2022-11-18T01:18:22;21.02;;;10.65;;
75435;SDS011;64014;53.432;14.534;2022-11-18T01:20:49;21.45;;;10.98;;
75435;SDS011;64014;53.432;14.534;2022-11-18T01:23:16;19.90;;;10.50;;
75435;SDS011;64014;53.432;14.534;2022-11-18T01:25:44;19.25;;;10.98;;
75435;SDS011;64014;53.432;14.534;2022-11-18T01:28:12;19.02;;;10.52;;
75435;SDS011;64014;53.432;14.534;2022-11-18T01:30:39;19.58;;;10.65;;
75435;SDS011;64014;53.432;14.534;2022-11-18T01:33:06;21.05;;;11.85;;
75435;SDS011;64014;53.432;14.534;2022-11-18T01:35:50;20.80;;;10.57;;
75435;SDS011;64014;53.432;14.534;2022-11-18T01:38:16;21.60;;;11.00;;
75435;SDS011;64014;53.432;14.534;2022-11-18T01:40:41;22.60;;;11.55;;
75435;SDS011;64014;53.432;14.534;2022-11-18T01:43:15;23.63;;;12.18;;
75435;SDS011;64014;53.432;14.534;2022-11-18T01:45:42;21.73;;;11.43;;
75435;SDS011;64014;53.432;14.534;2022-11-18T01:48:11;21.25;;;10.40;;
75435;SDS011;64014;53.432;14.534;2022-11-18T01:50:51;21.50;;;10.82;;
75435;SDS011;64014;53.432;14.534;2022-11-18T01:53:22;20.50;;;10.50;;
75435;SDS011;64014;53.432;14.534;2022-11-18T01:55:53;21.65;;;11.13;;
75435;SDS011;64014;53.432;14.534;2022-11-18T01:58:21;21.30;;;10.85;;
75435;SDS011;64014;53.432;14.534;2022-11-18T02:01:08;22.90;;;11.20;;
75435;SDS011;64014;53.432;14.534;2022-11-18T02:03:34;20.42;;;10.40;;
75435;SDS011;64014;53.432;14.534;2022-11-18T02:06:01;21.60;;;11.13;;
75435;SDS011;64014;53.432;14.534;2022-11-18T02:08:28;21.15;;;11.85;;
75435;SDS011;64014;53.432;14.534;2022-11-18T02:10:56;21.73;;;10.82;;
75435;SDS011;64014;53.432;14.534;2022-11-18T02:13:21;22.90;;;10.73;;
75435;SDS011;64014;53.432;14.534;2022-11-18T02:30:27;22.67;;;11.80;;
75435;SDS011;64014;53.432;14.534;2022-11-18T02:32:57;24.63;;;11.30;;
75435;SDS011;64014;53.432;14.534;2022-11-18T02:38:24;20.02;;;10.65;;
75435;SDS011;64014;53.432;14.534;2022-11-18T02:40:55;22.98;;;10.65;;
75435;SDS011;64014;53.432;14.534;2022-11-18T02:46:05;25.20;;;11.38;;
75435;SDS011;64014;53.432;14.534;2022-11-18T02:48:34;21.88;;;11.13;;
75435;SDS011;64014;53.432;14.534;2022-11-18T02:51:06;22.48;;;10.65;;
75435;SDS011;64014;53.432;14.534;2022-11-18T02:53:34;20.88;;;10.25;;
75435;SDS011;64014;53.432;14.534;2022-11-18T02:56:02;21.15;;;11.02;;
75435;SDS011;64014;53.432;14.534;2022-11-18T02:58:28;21.30;;;10.93;;
75435;SDS011;64014;53.432;14.534;2022-11-18T03:00:55;21.70;;;11.27;;
75435;SDS011;64014;53.432;14.534;2022-11-18T03:05:58;22.50;;;10.95;;
75435;SDS011;64014;53.432;14.534;2022-11-18T03:08:44;23.23;;;10.77;;
75435;SDS011;64014;53.432;14.534;2022-11-18T03:11:20;23.40;;;10.63;;
75435;SDS011;64014;53.432;14.534;2022-11-18T03:16:39;25.77;;;12.32;;
75435;SDS011;64014;53.432;14.534;2022-11-18T03:22:38;24.92;;;11.77;;
75435;SDS011;64014;53.432;14.534;2022-11-18T03:25:42;27.05;;;11.57;;
75435;SDS011;64014;53.432;14.534;2022-11-18T03:31:06;25.77;;;9.70;;
75435;SDS011;64014;53.432;14.534;2022-11-18T03:34:13;24.30;;;11.18;;
75435;SDS011;64014;53.432;14.534;2022-11-18T03:36:48;26.38;;;11.00;;
75435;SDS011;64014;53.432;14.534;2022-11-18T03:39:17;24.38;;;10.63;;
75435;SDS011;64014;53.432;14.534;2022-11-18T03:41:45;26.08;;;11.73;;
75435;SDS011;64014;53.432;14.534;2022-11-18T03:44:31;22.95;;;10.32;;
75435;SDS011;64014;53.432;14.534;2022-11-18T03:47:04;22.35;;;9.48;;
75435;SDS011;64014;53.432;14.534;2022-11-18T03:49:38;21.63;;;10.13;;
75435;SDS011;64014;53.432;14.534;2022-11-18T03:52:16;22.67;;;10.48;;
75435;SDS011;64014;53.432;14.534;2022-11-18T03:54:46;20.95;;;9.82;;
75435;SDS011;64014;53.432;14.534;2022-11-18T03:57:16;19.98;;;8.18;;
75435;SDS011;64014;53.432;14.534;2022-11-18T03:59:47;22.20;;;9.25;;
75435;SDS011;64014;53.432;14.534;2022-11-18T04:02:22;21.85;;;9.45;;
75435;SDS011;64014;53.432;14.534;2022-11-18T04:04:49;23.75;;;9.77;;
75435;SDS011;64014;53.432;14.534;2022-11-18T04:07:20;18.30;;;11.25;;
75435;SDS011;64014;53.432;14.534;2022-11-18T04:09:53;22.13;;;9.60;;
75435;SDS011;64014;53.432;14.534;2022-11-18T04:12:22;20.45;;;10.35;;
75435;SDS011;64014;53.432;14.534;2022-11-18T04:14:53;21.58;;;10.50;;
75435;SDS011;64014;53.432;14.534;2022-11-18T04:17:21;25.52;;;10.98;;
75435;SDS011;64014;53.432;14.534;2022-11-18T04:19:47;26.00;;;11.02;;
75435;SDS011;64014;53.432;14.534;2022-11-18T04:22:13;22.92;;;10.57;;
75435;SDS011;64014;53.432;14.534;2022-11-18T04:24:40;22.13;;;10.48;;
75435;SDS011;64014;53.432;14.534;2022-11-18T04:27:06;21.70;;;9.68;;
75435;SDS011;64014;53.432;14.534;2022-11-18T04:29:32;22.73;;;9.93;;
75435;SDS011;64014;53.432;14.534;2022-11-18T04:31:59;24.75;;;11.32;;
75435;SDS011;64014;53.432;14.534;2022-11-18T04:34:25;22.50;;;10.18;;
75435;SDS011;64014;53.432;14.534;2022-11-18T04:36:51;23.65;;;11.25;;
75435;SDS011;64014;53.432;14.534;2022-11-18T04:39:17;20.42;;;11.02;;
75435;SDS011;64014;53.432;14.534;2022-11-18T04:41:46;21.58;;;10.18;;
75435;SDS011;64014;53.432;14.534;2022-11-18T04:44:29;23.58;;;10.43;;
75435;SDS011;64014;53.432;14.534;2022-11-18T04:46:57;20.00;;;9.02;;
75435;SDS011;64014;53.432;14.534;2022-11-18T04:49:25;22.02;;;9.73;;
75435;SDS011;64014;53.432;14.534;2022-11-18T04:51:51;25.73;;;13.57;;
75435;SDS011;64014;53.432;14.534;2022-11-18T04:54:18;21.55;;;10.40;;
75435;SDS011;64014;53.432;14.534;2022-11-18T04:56:44;24.35;;;11.73;;
75435;SDS011;64014;53.432;14.534;2022-11-18T04:59:11;23.40;;;10.65;;
75435;SDS011;64014;53.432;14.534;2022-11-18T05:01:37;22.25;;;11.00;;
75435;SDS011;64014;53.432;14.534;2022-11-18T05:04:03;20.02;;;9.25;;
75435;SDS011;64014;53.432;14.534;2022-11-18T05:06:29;19.80;;;9.55;;
75435;SDS011;64014;53.432;14.534;2022-11-18T05:08:56;19.90;;;9.57;;
75435;SDS011;64014;53.432;14.534;2022-11-18T05:11:23;20.08;;;8.93;;
75435;SDS011;64014;53.432;14.534;2022-11-18T05:14:08;21.58;;;9.93;;
75435;SDS011;64014;53.432;14.534;2022-11-18T05:16:34;20.55;;;10.32;;
75435;SDS011;64014;53.432;14.534;2022-11-18T05:19:03;19.85;;;9.35;;
75435;SDS011;64014;53.432;14.534;2022-11-18T05:21:29;21.15;;;8.55;;
75435;SDS011;64014;53.432;14.534;2022-11-18T05:23:57;20.52;;;9.52;;
75435;SDS011;64014;53.432;14.534;2022-11-18T05:26:23;21.00;;;9.95;;
75435;SDS011;64014;53.432;14.534;2022-11-18T05:28:50;18.00;;;8.27;;
75435;SDS011;64014;53.432;14.534;2022-11-18T05:31:16;17.63;;;8.88;;
75435;SDS011;64014;53.432;14.534;2022-11-18T05:33:42;18.15;;;8.50;;
75435;SDS011;64014;53.432;14.534;2022-11-18T05:36:10;18.45;;;9.27;;
75435;SDS011;64014;53.432;14.534;2022-11-18T05:38:37;17.95;;;8.02;;
75435;SDS011;64014;53.432;14.534;2022-11-18T05:41:03;17.60;;;8.30;;
75435;SDS011;64014;53.432;14.534;2022-11-18T05:43:30;14.07;;;6.38;;
75435;SDS011;64014;53.432;14.534;2022-11-18T05:45:57;16.83;;;7.93;;
75435;SDS011;64014;53.432;14.534;2022-11-18T05:48:23;16.13;;;7.60;;
75435;SDS011;64014;53.432;14.534;2022-11-18T05:50:50;16.80;;;8.05;;
75435;SDS011;64014;53.432;14.534;2022-11-18T05:53:18;14.73;;;7.20;;
75435;SDS011;64014;53.432;14.534;2022-11-18T05:55:52;18.40;;;8.70;;
75435;SDS011;64014;53.432;14.534;2022-11-18T05:58:31;14.38;;;7.18;;
75435;SDS011;64014;53.432;14.534;2022-11-18T06:00:58;15.88;;;7.40;;
75435;SDS011;64014;53.432;14.534;2022-11-18T06:03:29;16.38;;;7.22;;
75435;SDS011;64014;53.432;14.534;2022-11-18T06:05:57;14.23;;;8.07;;
75435;SDS011;64014;53.432;14.534;2022-11-18T06:08:27;17.58;;;7.60;;
75435;SDS011;64014;53.432;14.534;2022-11-18T06:10:55;14.77;;;7.18;;
75435;SDS011;64014;53.432;14.534;2022-11-18T06:13:22;16.58;;;7.30;;
75435;SDS011;64014;53.432;14.534;2022-11-18T06:15:51;15.85;;;7.25;;
75435;SDS011;64014;53.432;14.534;2022-11-18T06:18:18;16.27;;;6.82;;
75435;SDS011;64014;53.432;14.534;2022-11-18T06:20:54;13.98;;;6.18;;
75435;SDS011;64014;53.432;14.534;2022-11-18T06:23:23;12.25;;;5.47;;
75435;SDS011;64014;53.432;14.534;2022-11-18T06:25:50;16.27;;;7.53;;
75435;SDS011;64014;53.432;14.534;2022-11-18T06:28:17;13.52;;;6.50;;
75435;SDS011;64014;53.432;14.534;2022-11-18T06:30:45;12.38;;;5.63;;
75435;SDS011;64014;53.432;14.534;2022-11-18T06:33:11;12.30;;;6.25;;
75435;SDS011;64014;53.432;14.534;2022-11-18T06:35:36;14.18;;;6.80;;
75435;SDS011;64014;53.432;14.534;2022-11-18T06:38:02;10.40;;;5.15;;
75435;SDS011;64014;53.432;14.534;2022-11-18T06:40:28;10.63;;;6.00;;
75435;SDS011;64014;53.432;14.534;2022-11-18T06:42:54;11.80;;;5.43;;
75435;SDS011;64014;53.432;14.534;2022-11-18T06:45:38;10.48;;;5.43;;
75435;SDS011;64014;53.432;14.534;2022-11-18T06:48:24;10.75;;;4.43;;
75435;SDS011;64014;53.432;14.534;2022-11-18T06:50:49;10.88;;;4.85;;
75435;SDS011;64014;53.432;14.534;2022-11-18T06:53:15;9.40;;;4.63;;
75435;SDS011;64014;53.432;14.534;2022-11-18T06:55:41;6.18;;;2.45;;
75435;SDS011;64014;53.432;14.534;2022-11-18T06:58:06;8.35;;;3.47;;
75435;SDS011;64014;53.432;14.534;2022-11-18T07:00:32;7.43;;;2.90;;
75435;SDS011;64014;53.432;14.534;2022-11-18T07:02:58;6.85;;;2.72;;
75435;SDS011;64014;53.432;14.534;2022-11-18T07:05:23;4.15;;;1.63;;
75435;SDS011;64014;53.432;14.534;2022-11-18T07:07:49;6.35;;;2.58;;
75435;SDS011;64014;53.432;14.534;2022-11-18T07:10:15;6.35;;;3.17;;
75435;SDS011;64014;53.432;14.534;2022-11-18T07:12:41;12.60;;;3.20;;
75435;SDS011;64014;53.432;14.534;2022-11-18T07:15:07;7.35;;;2.08;;
75435;SDS011;64014;53.432;14.534;2022-11-18T07:17:33;5.05;;;1.75;;
75435;SDS011;64014;53.432;14.534;2022-11-18T07:19:58;6.18;;;2.47;;
75435;SDS011;64014;53.432;14.534;2022-11-18T07:22:24;4.85;;;2.20;;
75435;SDS011;64014;53.432;14.534;2022-11-18T07:24:50;7.15;;;2.25;;
75435;SDS011;64014;53.432;14.534;2022-11-18T07:27:15;5.82;;;1.98;;
75435;SDS011;64014;53.432;14.534;2022-11-18T07:29:41;6.15;;;2.35;;
75435;SDS011;64014;53.432;14.534;2022-11-18T07:32:07;8.90;;;2.90;;
75435;SDS011;64014;53.432;14.534;2022-11-18T07:34:32;5.15;;;1.83;;
75435;SDS011;64014;53.432;14.534;2022-11-18T07:36:58;4.53;;;1.88;;
75435;SDS011;64014;53.432;14.534;2022-11-18T07:39:24;4.22;;;1.35;;
75435;SDS011;64014;53.432;14.534;2022-11-18T07:41:50;5.53;;;1.98;;
75435;SDS011;64014;53.432;14.534;2022-11-18T07:44:15;3.38;;;1.63;;
75435;SDS011;64014;53.432;14.534;2022-11-18T07:46:41;6.63;;;2.08;;
75435;SDS011;64014;53.432;14.534;2022-11-18T07:49:07;4.22;;;1.52;;
75435;SDS011;64014;53.432;14.534;2022-11-18T07:51:35;4.32;;;2.45;;
75435;SDS011;64014;53.432;14.534;2022-11-18T07:54:09;8.02;;;2.30;;
75435;SDS011;64014;53.432;14.534;2022-11-18T07:56:37;4.53;;;1.88;;
75435;SDS011;64014;53.432;14.534;2022-11-18T07:59:03;6.32;;;1.63;;
75435;SDS011;64014;53.432;14.534;2022-11-18T08:01:29;4.43;;;1.88;;
75435;SDS011;64014;53.432;14.534;2022-11-18T08:03:56;4.78;;;1.52;;
75435;SDS011;64014;53.432;14.534;2022-11-18T08:06:22;4.20;;;1.63;;
75435;SDS011;64014;53.432;14.534;2022-11-18T08:08:48;5.35;;;1.90;;
75435;SDS011;64014;53.432;14.534;2022-11-18T08:11:15;4.45;;;1.55;;
75435;SDS011;64014;53.432;14.534;2022-11-18T08:13:42;6.00;;;2.22;;
75435;SDS011;64014;53.432;14.534;2022-11-18T08:16:12;6.47;;;1.92;;
75435;SDS011;64014;53.432;14.534;2022-11-18T08:18:39;6.28;;;2.42;;
75435;SDS011;64014;53.432;14.534;2022-11-18T08:21:05;9.77;;;6.03;;
75435;SDS011;64014;53.432;14.534;2022-11-18T08:23:31;8.80;;;3.03;;
75435;SDS011;64014;53.432;14.534;2022-11-18T08:26:15;7.63;;;2.30;;
75435;SDS011;64014;53.432;14.534;2022-11-18T08:28:41;5.28;;;1.83;;
75435;SDS011;64014;53.432;14.534;2022-11-18T08:31:27;6.38;;;2.03;;
75435;SDS011;64014;53.432;14.534;2022-11-18T08:33:55;5.22;;;1.42;;
75435;SDS011;64014;53.432;14.534;2022-11-18T08:36:32;6.15;;;2.20;;
75435;SDS011;64014;53.432;14.534;2022-11-18T08:39:00;4.47;;;1.70;;
75435;SDS011;64014;53.432;14.534;2022-11-18T08:41:31;6.20;;;2.40;;
75435;SDS011;64014;53.432;14.534;2022-11-18T08:43:57;6.80;;;2.42;;
75435;SDS011;64014;53.432;14.534;2022-11-18T08:46:23;4.10;;;2.03;;
75435;SDS011;64014;53.432;14.534;2022-11-18T08:48:49;6.45;;;2.80;;
75435;SDS011;64014;53.432;14.534;2022-11-18T08:51:14;5.07;;;2.03;;
75435;SDS011;64014;53.432;14.534;2022-11-18T08:53:41;5.38;;;2.60;;
75435;SDS011;64014;53.432;14.534;2022-11-18T08:56:06;7.30;;;2.63;;
75435;SDS011;64014;53.432;14.534;2022-11-18T08:58:39;4.15;;;1.85;;
75435;SDS011;64014;53.432;14.534;2022-11-18T09:01:05;5.95;;;1.58;;
75435;SDS011;64014;53.432;14.534;2022-11-18T09:03:32;7.22;;;2.75;;
75435;SDS011;64014;53.432;14.534;2022-11-18T09:06:12;5.25;;;1.60;;
75435;SDS011;64014;53.432;14.534;2022-11-18T09:08:40;5.90;;;2.80;;
75435;SDS011;64014;53.432;14.534;2022-11-18T09:11:07;3.78;;;1.75;;
75435;SDS011;64014;53.432;14.534;2022-11-18T09:13:34;4.38;;;1.73;;
75435;SDS011;64014;53.432;14.534;2022-11-18T09:16:01;6.30;;;1.85;;
75435;SDS011;64014;53.432;14.534;2022-11-18T09:18:27;5.40;;;2.40;;
75435;SDS011;64014;53.432;14.534;2022-11-18T09:20:56;4.55;;;1.80;;
75435;SDS011;64014;53.432;14.534;2022-11-18T09:23:23;4.22;;;1.88;;
75435;SDS011;64014;53.432;14.534;2022-11-18T09:26:03;4.03;;;1.25;;
75435;SDS011;64014;53.432;14.534;2022-11-18T09:28:30;4.78;;;1.77;;
75435;SDS011;64014;53.432;14.534;2022-11-18T09:30:56;8.50;;;1.95;;
75435;SDS011;64014;53.432;14.534;2022-11-18T09:33:22;3.25;;;1.50;;
75435;SDS011;64014;53.432;14.534;2022-11-18T09:35:48;9.18;;;2.83;;
75435;SDS011;64014;53.432;14.534;2022-11-18T09:38:14;5.97;;;2.13;;
75435;SDS011;64014;53.432;14.534;2022-11-18T09:49:42;4.65;;;2.30;;
75435;SDS011;64014;53.432;14.534;2022-11-18T09:54:46;3.25;;;1.67;;
75435;SDS011;64014;53.432;14.534;2022-11-18T09:59:42;4.90;;;2.08;;
75435;SDS011;64014;53.432;14.534;2022-11-18T10:02:28;6.88;;;1.63;;
75435;SDS011;64014;53.432;14.534;2022-11-18T10:05:22;4.70;;;1.33;;
75435;SDS011;64014;53.432;14.534;2022-11-18T10:10:40;5.13;;;2.03;;
75435;SDS011;64014;53.432;14.534;2022-11-18T10:18:56;6.55;;;2.45;;
75435;SDS011;64014;53.432;14.534;2022-11-18T10:24:41;9.02;;;4.97;;
75435;SDS011;64014;53.432;14.534;2022-11-18T10:27:10;6.40;;;2.05;;
75435;SDS011;64014;53.432;14.534;2022-11-18T10:29:37;5.15;;;2.13;;
75435;SDS011;64014;53.432;14.534;2022-11-18T10:32:05;3.72;;;1.55;;
75435;SDS011;64014;53.432;14.534;2022-11-18T10:34:49;6.35;;;2.78;;
75435;SDS011;64014;53.432;14.534;2022-11-18T10:37:23;4.80;;;1.90;;
75435;SDS011;64014;53.432;14.534;2022-11-18T10:39:52;10.35;;;5.07;;
75435;SDS011;64014;53.432;14.534;2022-11-18T10:42:33;6.68;;;2.65;;
75435;SDS011;64014;53.432;14.534;2022-11-18T10:45:14;8.38;;;2.83;;
75435;SDS011;64014;53.432;14.534;2022-11-18T10:47:40;6.28;;;2.50;;
75435;SDS011;64014;53.432;14.534;2022-11-18T10:56:15;5.40;;;3.03;;
75435;SDS011;64014;53.432;14.534;2022-11-18T11:03:57;6.65;;;1.95;;
75435;SDS011;64014;53.432;14.534;2022-11-18T11:08:59;8.65;;;3.13;;
75435;SDS011;64014;53.432;14.534;2022-11-18T11:11:31;8.18;;;2.17;;
75435;SDS011;64014;53.432;14.534;2022-11-18T11:14:26;4.85;;;1.88;;
75435;SDS011;64014;53.432;14.534;2022-11-18T11:19:41;4.65;;;1.55;;
75435;SDS011;64014;53.432;14.534;2022-11-18T11:22:25;5.10;;;1.80;;
75435;SDS011;64014;53.432;14.534;2022-11-18T11:24:52;9.07;;;2.67;;
75435;SDS011;64014;53.432;14.534;2022-11-18T11:35:45;4.55;;;1.42;;
75435;SDS011;64014;53.432;14.534;2022-11-18T11:41:06;6.18;;;1.70;;
75435;SDS011;64014;53.432;14.534;2022-11-18T11:46:43;3.28;;;1.13;;
75435;SDS011;64014;53.432;14.534;2022-11-18T11:52:15;8.82;;;4.03;;
75435;SDS011;64014;53.432;14.534;2022-11-18T12:00:42;4.07;;;1.58;;
75435;SDS011;64014;53.432;14.534;2022-11-18T12:05:46;5.35;;;2.88;;
75435;SDS011;64014;53.432;14.534;2022-11-18T12:08:16;4.97;;;2.13;;
75435;SDS011;64014;53.432;14.534;2022-11-18T12:10:56;6.90;;;3.85;;
75435;SDS011;64014;53.432;14.534;2022-11-18T12:13:46;10.73;;;3.47;;
75435;SDS011;64014;53.432;14.534;2022-11-18T12:16:44;6.53;;;2.70;;
75435;SDS011;64014;53.432;14.534;2022-11-18T12:19:18;5.55;;;1.63;;
75435;SDS011;64014;53.432;14.534;2022-11-18T12:24:26;9.77;;;4.13;;
75435;SDS011;64014;53.432;14.534;2022-11-18T12:27:05;6.13;;;2.92;;
75435;SDS011;64014;53.432;14.534;2022-11-18T12:32:15;5.40;;;1.85;;
75435;SDS011;64014;53.432;14.534;2022-11-18T12:34:58;14.70;;;3.33;;
75435;SDS011;64014;53.432;14.534;2022-11-18T12:43:04;5.32;;;2.30;;
75435;SDS011;64014;53.432;14.534;2022-11-18T12:46:28;6.40;;;3.35;;
75435;SDS011;64014;53.432;14.534;2022-11-18T12:51:46;6.55;;;3.50;;
75435;SDS011;64014;53.432;14.534;2022-11-18T12:54:20;7.00;;;2.95;;
75435;SDS011;64014;53.432;14.534;2022-11-18T12:56:50;5.68;;;2.25;;
75435;SDS011;64014;53.432;14.534;2022-11-18T12:59:24;5.80;;;2.42;;
75435;SDS011;64014;53.432;14.534;2022-11-18T13:04:35;5.25;;;2.22;;
75435;SDS011;64014;53.432;14.534;2022-11-18T13:07:01;7.30;;;2.85;;
75435;SDS011;64014;53.432;14.534;2022-11-18T13:09:29;5.53;;;2.53;;
75435;SDS011;64014;53.432;14.534;2022-11-18T13:12:05;9.23;;;4.40;;
75435;SDS011;64014;53.432;14.534;2022-11-18T13:14:39;9.70;;;4.75;;
75435;SDS011;64014;53.432;14.534;2022-11-18T13:17:28;5.68;;;2.67;;
75435;SDS011;64014;53.432;14.534;2022-11-18T13:23:02;10.05;;;3.53;;
75435;SDS011;64014;53.432;14.534;2022-11-18T13:25:58;9.98;;;4.75;;
75435;SDS011;64014;53.432;14.534;2022-11-18T13:33:59;14.88;;;5.80;;
75435;SDS011;64014;53.432;14.534;2022-11-18T13:36:26;18.88;;;8.82;;
75435;SDS011;64014;53.432;14.534;2022-11-18T13:39:05;33.22;;;13.40;;
75435;SDS011;64014;53.432;14.534;2022-11-18T13:41:33;37.47;;;17.10;;
75435;SDS011;64014;53.432;14.534;2022-11-18T13:44:09;15.18;;;8.80;;
75435;SDS011;64014;53.432;14.534;2022-11-18T13:46:37;11.27;;;7.38;;
75435;SDS011;64014;53.432;14.534;2022-11-18T13:49:04;11.18;;;5.32;;
75435;SDS011;64014;53.432;14.534;2022-11-18T13:51:30;15.55;;;7.88;;
75435;SDS011;64014;53.432;14.534;2022-11-18T13:53:56;11.57;;;5.28;;
75435;SDS011;64014;53.432;14.534;2022-11-18T13:56:25;7.82;;;4.13;;
75435;SDS011;64014;53.432;14.534;2022-11-18T13:58:55;6.43;;;3.00;;
75435;SDS011;64014;53.432;14.534;2022-11-18T14:01:28;8.15;;;2.85;;
75435;SDS011;64014;53.432;14.534;2022-11-18T14:04:00;6.53;;;2.63;;
75435;SDS011;64014;53.432;14.534;2022-11-18T14:06:38;8.30;;;3.28;;
75435;SDS011;64014;53.432;14.534;2022-11-18T14:09:27;8.85;;;4.93;;
75435;SDS011;64014;53.432;14.534;2022-11-18T14:12:05;13.45;;;6.85;;
75435;SDS011;64014;53.432;14.534;2022-11-18T14:14:45;10.35;;;4.95;;
75435;SDS011;64014;53.432;14.534;2022-11-18T14:17:22;27.10;;;13.25;;
75435;SDS011;64014;53.432;14.534;2022-11-18T14:19:52;15.40;;;7.03;;
75435;SDS011;64014;53.432;14.534;2022-11-18T14:22:21;10.70;;;4.63;;
75435;SDS011;64014;53.432;14.534;2022-11-18T14:25:13;19.00;;;6.95;;
75435;SDS011;64014;53.432;14.534;2022-11-18T14:27:43;15.98;;;6.43;;
75435;SDS011;64014;53.432;14.534;2022-11-18T14:35:30;11.65;;;5.15;;
75435;SDS011;64014;53.432;14.534;2022-11-18T14:37:57;12.65;;;6.15;;
75435;SDS011;64014;53.432;14.534;2022-11-18T14:40:22;20.25;;;9.98;;
75435;SDS011;64014;53.432;14.534;2022-11-18T14:42:48;45.78;;;20.05;;
75435;SDS011;64014;53.432;14.534;2022-11-18T14:45:14;12.90;;;7.93;;
75435;SDS011;64014;53.432;14.534;2022-11-18T14:47:39;7.82;;;4.05;;
75435;SDS011;64014;53.432;14.534;2022-11-18T14:50:12;8.00;;;4.38;;
75435;SDS011;64014;53.432;14.534;2022-11-18T14:52:38;11.45;;;5.65;;
75435;SDS011;64014;53.432;14.534;2022-11-18T14:55:04;10.63;;;4.57;;
75435;SDS011;64014;53.432;14.534;2022-11-18T14:57:31;8.23;;;4.03;;
75435;SDS011;64014;53.432;14.534;2022-11-18T14:59:56;12.23;;;6.35;;
75435;SDS011;64014;53.432;14.534;2022-11-18T15:02:22;9.30;;;4.78;;
75435;SDS011;64014;53.432;14.534;2022-11-18T15:04:48;15.43;;;7.15;;
75435;SDS011;64014;53.432;14.534;2022-11-18T15:07:16;10.77;;;5.47;;
75435;SDS011;64014;53.432;14.534;2022-11-18T15:09:42;10.65;;;4.65;;
75435;SDS011;64014;53.432;14.534;2022-11-18T15:12:08;12.57;;;4.82;;
75435;SDS011;64014;53.432;14.534;2022-11-18T15:14:34;16.40;;;8.20;;
75435;SDS011;64014;53.432;14.534;2022-11-18T15:17:00;10.90;;;5.25;;
75435;SDS011;64014;53.432;14.534;2022-11-18T15:19:27;13.38;;;5.38;;
75435;SDS011;64014;53.432;14.534;2022-11-18T15:21:53;16.40;;;7.57;;
75435;SDS011;64014;53.432;14.534;2022-11-18T15:24:18;12.65;;;6.43;;
75435;SDS011;64014;53.432;14.534;2022-11-18T15:26:44;9.23;;;4.17;;
75435;SDS011;64014;53.432;14.534;2022-11-18T15:29:18;10.38;;;5.38;;
75435;SDS011;64014;53.432;14.534;2022-11-18T15:31:46;12.05;;;6.05;;
75435;SDS011;64014;53.432;14.534;2022-11-18T15:34:13;12.57;;;6.13;;
75435;SDS011;64014;53.432;14.534;2022-11-18T15:36:39;15.68;;;8.20;;
75435;SDS011;64014;53.432;14.534;2022-11-18T15:39:05;23.13;;;11.20;;
75435;SDS011;64014;53.432;14.534;2022-11-18T15:41:31;16.85;;;9.40;;
75435;SDS011;64014;53.432;14.534;2022-11-18T15:43:58;20.05;;;9.95;;
75435;SDS011;64014;53.432;14.534;2022-11-18T15:46:25;24.30;;;12.80;;
75435;SDS011;64014;53.432;14.534;2022-11-18T15:51:20;13.68;;;7.03;;
75435;SDS011;64014;53.432;14.534;2022-11-18T15:53:47;14.05;;;6.93;;
75435;SDS011;64014;53.432;14.534;2022-11-18T15:58:55;22.73;;;10.10;;
75435;SDS011;64014;53.432;14.534;2022-11-18T16:01:29;16.13;;;8.60;;
75435;SDS011;64014;53.432;14.534;2022-11-18T16:03:56;14.00;;;8.20;;
75435;SDS011;64014;53.432;14.534;2022-11-18T16:06:23;17.25;;;9.70;;
75435;SDS011;64014;53.432;14.534;2022-11-18T16:08:49;15.90;;;6.47;;
75435;SDS011;64014;53.432;14.534;2022-11-18T16:11:16;13.45;;;6.50;;
75435;SDS011;64014;53.432;14.534;2022-11-18T16:14:01;18.98;;;11.00;;
75435;SDS011;64014;53.432;14.534;2022-11-18T16:16:28;20.73;;;11.43;;
75435;SDS011;64014;53.432;14.534;2022-11-18T16:18:55;26.40;;;13.38;;
75435;SDS011;64014;53.432;14.534;2022-11-18T16:21:22;17.10;;;8.88;;
75435;SDS011;64014;53.432;14.534;2022-11-18T16:23:49;18.48;;;6.97;;
75435;SDS011;64014;53.432;14.534;2022-11-18T16:26:18;19.00;;;8.23;;
75435;SDS011;64014;53.432;14.534;2022-11-18T16:28:44;21.80;;;8.35;;
75435;SDS011;64014;53.432;14.534;2022-11-18T16:31:10;42.97;;;17.70;;
75435;SDS011;64014;53.432;14.534;2022-11-18T16:33:54;31.52;;;13.90;;
75435;SDS011;64014;53.432;14.534;2022-11-18T16:36:26;17.95;;;8.60;;
75435;SDS011;64014;53.432;14.534;2022-11-18T16:38:52;23.50;;;13.18;;
75435;SDS011;64014;53.432;14.534;2022-11-18T16:41:18;19.00;;;9.60;;
75435;SDS011;64014;53.432;14.534;2022-11-18T16:43:56;15.60;;;8.07;;
75435;SDS011;64014;53.432;14.534;2022-11-18T16:46:28;17.05;;;9.93;;
75435;SDS011;64014;53.432;14.534;2022-11-18T16:48:55;25.77;;;11.48;;
75435;SDS011;64014;53.432;14.534;2022-11-18T16:51:22;40.65;;;20.42;;
75435;SDS011;64014;53.432;14.534;2022-11-18T16:53:50;25.63;;;12.25;;
75435;SDS011;64014;53.432;14.534;2022-11-18T16:56:20;20.13;;;11.65;;